Dahlonega, GA

4:01 PM EDT on August 30, 2015 (GMT -0400)
Esborn Road | | Change Station
CLOSE
Current Station
Personal Weather Station
Location: Dahlonega, GA
Elevation: 1425 ft
Nearby Weather Stations

Elev 1425 ft 34.57 °N, 83.94 °W | Updated 4 minutes ago

Overcast
Overcast
66.0 °F
Feels Like 66.0 °F
N
2.0
Wind Variable Wind from SE
Gusts 6.0 mph

Today
High -- | Low -- °F
--% Chance of Precip.
Yesterday
High -- | Low -- °F
Precip. -- in
7:07 AM 8:05 PM
Full, 98% visible
Pressure 30.12 in
Visibility 8.0 miles
Clouds Few 2300 ft
Few 6500 ft
Scattered Clouds 10000 ft
Dew Point 60 °F
Humidity 81%
Rainfall 0.02 in
Snow Depth Not available.
UV 6 out of 12
Pollen 3.80 out of 12
Air Quality Not available.
Flu Activity Not available.
METAR KGVL 301953Z AUTO 09006KT 8SM FEW023 FEW065 SCT100 19/18 A3016 RMK AO2 RAB1854E38 SLP200 P0002 T01940178
Pressure 30.12 in
Visibility 8.0 miles
Clouds Few 2300 ft
Few 6500 ft
Scattered Clouds 10000 ft
Dew Point 60 °F
Humidity 81%
Rainfall 0.02 in
Snow Depth Not available.
UV 6 out of 12
Pollen 3.80 out of 12
Air Quality Not available.
Flu Activity Not available.
METAR KGVL 301953Z AUTO 09006KT 8SM FEW023 FEW065 SCT100 19/18 A3016 RMK AO2 RAB1854E38 SLP200 P0002 T01940178

10-Day Weather Forecast

×

Almanac

Astronomy

Aug. 30, 2015 Rise Set
Actual Time
Civil Twilight
Nautical Twilight
Astronomical Twilight
Moon
Length of Visible Light
Length of Day
Tomorrow will be .
, % of the Moon is Illuminated

Today's Extremes

State Highs State Lows

Community

WunderPhotos

Upload Photos

1,851,048 photos uploaded!

WunderBlogs® & News

Nearby

Air Quality

  Air Quality AQ Index Pollutant
Not available.

Snow Depth

Station Depth Elevation

Earthquake Activity

City Distance Mag. Time & Date
Minimum magnitude displayed is 2.5.

Coastal Water Temperatures

Place Temperature

Stations

Nearby Weather Stations

Station Location Temp. Windchill Dew Point Humidity Wind Precip. Elev Updated Type